sensor_id;sensor_type;location;lat;lon;timestamp;temperature;humidity
18880;DHT22;9572;52.378;13.404;2023-11-19T00:00:30;4.60;99.90
18880;DHT22;9572;52.378;13.404;2023-11-19T00:02:57;4.60;99.90
18880;DHT22;9572;52.378;13.404;2023-11-19T00:05:24;4.60;99.90
18880;DHT22;9572;52.378;13.404;2023-11-19T00:07:52;4.70;99.90
18880;DHT22;9572;52.378;13.404;2023-11-19T00:10:20;4.70;99.90
18880;DHT22;9572;52.378;13.404;2023-11-19T00:12:48;4.70;99.90
18880;DHT22;9572;52.378;13.404;2023-11-19T00:15:15;4.70;99.90
18880;DHT22;9572;52.378;13.404;2023-11-19T00:17:44;4.70;99.90
18880;DHT22;9572;52.378;13.404;2023-11-19T00:20:12;4.70;99.90
18880;DHT22;9572;52.378;13.404;2023-11-19T00:22:39;4.70;99.90
18880;DHT22;9572;52.378;13.404;2023-11-19T00:25:07;4.70;99.90
18880;DHT22;9572;52.378;13.404;2023-11-19T00:27:36;4.80;99.90
18880;DHT22;9572;52.378;13.404;2023-11-19T00:30:04;4.80;99.90
18880;DHT22;9572;52.378;13.404;2023-11-19T00:32:32;4.70;99.90
18880;DHT22;9572;52.378;13.404;2023-11-19T00:34:58;4.70;99.90
18880;DHT22;9572;52.378;13.404;2023-11-19T00:37:25;4.70;99.90
18880;DHT22;9572;52.378;13.404;2023-11-19T00:39:52;4.70;99.90
18880;DHT22;9572;52.378;13.404;2023-11-19T00:42:21;4.80;99.90
18880;DHT22;9572;52.378;13.404;2023-11-19T00:44:51;4.80;99.90
18880;DHT22;9572;52.378;13.404;2023-11-19T00:47:18;4.80;99.90
18880;DHT22;9572;52.378;13.404;2023-11-19T00:49:46;4.80;99.90
18880;DHT22;9572;52.378;13.404;2023-11-19T00:52:13;4.80;99.90
18880;DHT22;9572;52.378;13.404;2023-11-19T00:54:40;4.80;99.90
18880;DHT22;9572;52.378;13.404;2023-11-19T00:57:07;4.80;99.90
18880;DHT22;9572;52.378;13.404;2023-11-19T00:59:34;4.70;99.90
18880;DHT22;9572;52.378;13.404;2023-11-19T01:02:02;4.80;99.90
18880;DHT22;9572;52.378;13.404;2023-11-19T01:04:33;4.80;99.90
18880;DHT22;9572;52.378;13.404;2023-11-19T01:07:01;4.80;99.90
18880;DHT22;9572;52.378;13.404;2023-11-19T01:09:29;4.70;99.90
18880;DHT22;9572;52.378;13.404;2023-11-19T01:11:57;4.80;99.90
18880;DHT22;9572;52.378;13.404;2023-11-19T01:14:25;4.80;99.90
18880;DHT22;9572;52.378;13.404;2023-11-19T01:16:52;4.80;99.90
18880;DHT22;9572;52.378;13.404;2023-11-19T01:19:22;4.80;99.90
18880;DHT22;9572;52.378;13.404;2023-11-19T01:21:50;4.80;99.90
18880;DHT22;9572;52.378;13.404;2023-11-19T01:24:17;4.90;99.90
18880;DHT22;9572;52.378;13.404;2023-11-19T01:26:44;4.80;99.90
18880;DHT22;9572;52.378;13.404;2023-11-19T01:29:11;4.90;99.90
18880;DHT22;9572;52.378;13.404;2023-11-19T01:31:39;4.80;99.90
18880;DHT22;9572;52.378;13.404;2023-11-19T01:34:06;4.80;99.90
18880;DHT22;9572;52.378;13.404;2023-11-19T01:36:34;4.90;99.90
18880;DHT22;9572;52.378;13.404;2023-11-19T01:39:01;4.90;99.90
18880;DHT22;9572;52.378;13.404;2023-11-19T01:41:29;4.90;99.90
18880;DHT22;9572;52.378;13.404;2023-11-19T01:43:56;4.90;99.90
18880;DHT22;9572;52.378;13.404;2023-11-19T01:46:24;4.90;99.90
18880;DHT22;9572;52.378;13.404;2023-11-19T01:48:52;4.90;99.90
18880;DHT22;9572;52.378;13.404;2023-11-19T01:51:21;4.90;99.90
18880;DHT22;9572;52.378;13.404;2023-11-19T01:53:50;4.90;99.90
18880;DHT22;9572;52.378;13.404;2023-11-19T01:56:17;4.90;99.90
18880;DHT22;9572;52.378;13.404;2023-11-19T01:58:45;5.00;99.90
18880;DHT22;9572;52.378;13.404;2023-11-19T02:01:13;5.10;99.90
18880;DHT22;9572;52.378;13.404;2023-11-19T02:03:40;5.10;99.90
18880;DHT22;9572;52.378;13.404;2023-11-19T02:06:07;5.00;99.90
18880;DHT22;9572;52.378;13.404;2023-11-19T02:08:35;5.00;99.90
18880;DHT22;9572;52.378;13.404;2023-11-19T02:11:04;4.90;99.90
18880;DHT22;9572;52.378;13.404;2023-11-19T02:13:32;4.90;99.90
18880;DHT22;9572;52.378;13.404;2023-11-19T02:16:01;5.00;99.90
18880;DHT22;9572;52.378;13.404;2023-11-19T02:18:28;5.10;99.90
18880;DHT22;9572;52.378;13.404;2023-11-19T02:20:56;5.00;99.90
18880;DHT22;9572;52.378;13.404;2023-11-19T02:23:23;5.00;99.90
18880;DHT22;9572;52.378;13.404;2023-11-19T02:26:05;5.00;99.90
18880;DHT22;9572;52.378;13.404;2023-11-19T02:28:38;5.00;99.90
18880;DHT22;9572;52.378;13.404;2023-11-19T02:31:05;4.90;99.90
18880;DHT22;9572;52.378;13.404;2023-11-19T02:33:35;4.90;99.90
18880;DHT22;9572;52.378;13.404;2023-11-19T02:36:02;4.90;99.90
18880;DHT22;9572;52.378;13.404;2023-11-19T02:38:29;5.00;99.90
18880;DHT22;9572;52.378;13.404;2023-11-19T02:40:56;5.00;99.90
18880;DHT22;9572;52.378;13.404;2023-11-19T02:43:23;5.00;99.90
18880;DHT22;9572;52.378;13.404;2023-11-19T02:45:51;5.00;99.90
18880;DHT22;9572;52.378;13.404;2023-11-19T02:48:21;5.10;99.90
18880;DHT22;9572;52.378;13.404;2023-11-19T02:50:48;5.00;99.90
18880;DHT22;9572;52.378;13.404;2023-11-19T02:53:15;5.00;99.90
18880;DHT22;9572;52.378;13.404;2023-11-19T02:55:43;5.00;99.90
18880;DHT22;9572;52.378;13.404;2023-11-19T02:58:14;5.00;99.90
18880;DHT22;9572;52.378;13.404;2023-11-19T03:00:50;5.10;99.90
18880;DHT22;9572;52.378;13.404;2023-11-19T03:03:23;5.10;99.90
18880;DHT22;9572;52.378;13.404;2023-11-19T03:05:54;5.10;99.90
18880;DHT22;9572;52.378;13.404;2023-11-19T03:08:21;5.10;99.90
18880;DHT22;9572;52.378;13.404;2023-11-19T03:10:49;5.10;99.90
18880;DHT22;9572;52.378;13.404;2023-11-19T03:13:16;5.20;99.90
18880;DHT22;9572;52.378;13.404;2023-11-19T03:15:43;5.10;99.90
18880;DHT22;9572;52.378;13.404;2023-11-19T03:18:11;5.10;99.90
18880;DHT22;9572;52.378;13.404;2023-11-19T03:20:38;5.20;99.90
18880;DHT22;9572;52.378;13.404;2023-11-19T03:23:06;5.20;99.90
18880;DHT22;9572;52.378;13.404;2023-11-19T03:25:32;5.30;99.90
18880;DHT22;9572;52.378;13.404;2023-11-19T03:28:00;5.30;99.90
18880;DHT22;9572;52.378;13.404;2023-11-19T03:30:27;5.30;99.90
18880;DHT22;9572;52.378;13.404;2023-11-19T03:32:55;5.20;99.90
18880;DHT22;9572;52.378;13.404;2023-11-19T03:35:23;5.10;99.90
18880;DHT22;9572;52.378;13.404;2023-11-19T03:37:51;5.10;99.90
18880;DHT22;9572;52.378;13.404;2023-11-19T03:40:18;5.00;99.90
18880;DHT22;9572;52.378;13.404;2023-11-19T03:42:45;5.00;99.90
18880;DHT22;9572;52.378;13.404;2023-11-19T03:45:13;5.00;99.90
18880;DHT22;9572;52.378;13.404;2023-11-19T03:47:40;5.10;99.90
18880;DHT22;9572;52.378;13.404;2023-11-19T03:50:07;5.00;99.90
18880;DHT22;9572;52.378;13.404;2023-11-19T03:52:38;5.10;99.90
18880;DHT22;9572;52.378;13.404;2023-11-19T03:55:05;5.10;99.90
18880;DHT22;9572;52.378;13.404;2023-11-19T03:57:34;5.00;99.90
18880;DHT22;9572;52.378;13.404;2023-11-19T04:00:01;4.90;99.90
18880;DHT22;9572;52.378;13.404;2023-11-19T04:02:33;5.00;99.90
18880;DHT22;9572;52.378;13.404;2023-11-19T04:05:00;5.00;99.90
18880;DHT22;9572;52.378;13.404;2023-11-19T04:07:28;4.90;99.90
18880;DHT22;9572;52.378;13.404;2023-11-19T04:09:57;4.90;99.90
18880;DHT22;9572;52.378;13.404;2023-11-19T04:12:24;4.90;99.90
18880;DHT22;9572;52.378;13.404;2023-11-19T04:14:51;4.90;99.90
18880;DHT22;9572;52.378;13.404;2023-11-19T04:17:17;5.00;99.90
18880;DHT22;9572;52.378;13.404;2023-11-19T04:19:44;4.90;99.90
18880;DHT22;9572;52.378;13.404;2023-11-19T04:22:11;5.00;99.90
18880;DHT22;9572;52.378;13.404;2023-11-19T04:24:38;4.90;99.90
18880;DHT22;9572;52.378;13.404;2023-11-19T04:27:07;4.90;99.90
18880;DHT22;9572;52.378;13.404;2023-11-19T04:29:34;4.90;99.90
18880;DHT22;9572;52.378;13.404;2023-11-19T04:32:02;4.90;99.90
18880;DHT22;9572;52.378;13.404;2023-11-19T04:34:31;4.90;99.90
18880;DHT22;9572;52.378;13.404;2023-11-19T04:36:58;4.90;99.90
18880;DHT22;9572;52.378;13.404;2023-11-19T04:39:27;4.90;99.90
18880;DHT22;9572;52.378;13.404;2023-11-19T04:41:54;4.90;99.90
18880;DHT22;9572;52.378;13.404;2023-11-19T04:44:23;4.90;99.90
18880;DHT22;9572;52.378;13.404;2023-11-19T04:46:50;4.90;99.90
18880;DHT22;9572;52.378;13.404;2023-11-19T04:49:17;4.90;99.90
18880;DHT22;9572;52.378;13.404;2023-11-19T04:51:45;4.90;99.90
18880;DHT22;9572;52.378;13.404;2023-11-19T04:54:12;5.00;99.90
18880;DHT22;9572;52.378;13.404;2023-11-19T04:56:40;5.00;99.90
18880;DHT22;9572;52.378;13.404;2023-11-19T04:59:07;5.00;99.90
18880;DHT22;9572;52.378;13.404;2023-11-19T05:01:36;5.00;99.90
18880;DHT22;9572;52.378;13.404;2023-11-19T05:04:03;5.00;99.90
18880;DHT22;9572;52.378;13.404;2023-11-19T05:06:30;4.90;99.90
18880;DHT22;9572;52.378;13.404;2023-11-19T05:08:59;5.00;99.90
18880;DHT22;9572;52.378;13.404;2023-11-19T05:11:29;4.90;99.90
18880;DHT22;9572;52.378;13.404;2023-11-19T05:13:56;4.90;99.90
18880;DHT22;9572;52.378;13.404;2023-11-19T05:16:23;4.90;99.90
18880;DHT22;9572;52.378;13.404;2023-11-19T05:18:51;4.90;99.90
18880;DHT22;9572;52.378;13.404;2023-11-19T05:21:18;5.00;99.90
18880;DHT22;9572;52.378;13.404;2023-11-19T05:23:45;5.00;99.90
18880;DHT22;9572;52.378;13.404;2023-11-19T05:26:18;5.00;99.90
18880;DHT22;9572;52.378;13.404;2023-11-19T05:28:46;5.00;99.90
18880;DHT22;9572;52.378;13.404;2023-11-19T05:31:13;5.00;99.90
18880;DHT22;9572;52.378;13.404;2023-11-19T05:33:40;5.00;99.90
18880;DHT22;9572;52.378;13.404;2023-11-19T05:36:11;5.10;99.90
18880;DHT22;9572;52.378;13.404;2023-11-19T05:38:38;5.00;99.90
18880;DHT22;9572;52.378;13.404;2023-11-19T05:41:05;5.00;99.90
18880;DHT22;9572;52.378;13.404;2023-11-19T05:43:33;5.00;99.90
18880;DHT22;9572;52.378;13.404;2023-11-19T05:46:01;5.00;99.90
18880;DHT22;9572;52.378;13.404;2023-11-19T05:48:30;5.10;99.90
18880;DHT22;9572;52.378;13.404;2023-11-19T05:50:57;5.10;99.90
18880;DHT22;9572;52.378;13.404;2023-11-19T05:53:25;5.10;99.90
18880;DHT22;9572;52.378;13.404;2023-11-19T05:55:52;5.10;99.90
18880;DHT22;9572;52.378;13.404;2023-11-19T05:58:23;5.10;99.90
18880;DHT22;9572;52.378;13.404;2023-11-19T06:00:54;5.20;99.90
18880;DHT22;9572;52.378;13.404;2023-11-19T06:03:21;5.10;99.90
18880;DHT22;9572;52.378;13.404;2023-11-19T06:05:48;5.10;99.90
18880;DHT22;9572;52.378;13.404;2023-11-19T06:08:15;5.00;99.90
18880;DHT22;9572;52.378;13.404;2023-11-19T06:10:44;5.10;99.90
18880;DHT22;9572;52.378;13.404;2023-11-19T06:13:12;5.10;99.90
18880;DHT22;9572;52.378;13.404;2023-11-19T06:15:40;5.10;99.90
18880;DHT22;9572;52.378;13.404;2023-11-19T06:18:08;5.10;99.90
18880;DHT22;9572;52.378;13.404;2023-11-19T06:20:37;5.10;99.90
18880;DHT22;9572;52.378;13.404;2023-11-19T06:23:04;5.10;99.90
18880;DHT22;9572;52.378;13.404;2023-11-19T06:25:31;5.10;99.90
18880;DHT22;9572;52.378;13.404;2023-11-19T06:28:04;5.10;99.90
18880;DHT22;9572;52.378;13.404;2023-11-19T06:30:31;5.10;99.90
18880;DHT22;9572;52.378;13.404;2023-11-19T06:32:58;5.10;99.90
18880;DHT22;9572;52.378;13.404;2023-11-19T06:35:25;5.10;99.90
18880;DHT22;9572;52.378;13.404;2023-11-19T06:37:52;5.10;99.90
18880;DHT22;9572;52.378;13.404;2023-11-19T06:40:19;5.10;99.90
18880;DHT22;9572;52.378;13.404;2023-11-19T06:42:46;5.10;99.90
18880;DHT22;9572;52.378;13.404;2023-11-19T06:45:14;5.10;99.90
18880;DHT22;9572;52.378;13.404;2023-11-19T06:47:41;5.10;99.90
18880;DHT22;9572;52.378;13.404;2023-11-19T06:50:08;5.20;99.90
18880;DHT22;9572;52.378;13.404;2023-11-19T06:52:37;5.20;99.90
18880;DHT22;9572;52.378;13.404;2023-11-19T06:55:06;5.20;99.90
18880;DHT22;9572;52.378;13.404;2023-11-19T06:57:33;5.30;99.90
18880;DHT22;9572;52.378;13.404;2023-11-19T07:00:00;5.30;99.90
18880;DHT22;9572;52.378;13.404;2023-11-19T07:02:28;5.30;99.90
18880;DHT22;9572;52.378;13.404;2023-11-19T07:04:55;5.40;99.90
18880;DHT22;9572;52.378;13.404;2023-11-19T07:07:22;5.40;99.90
18880;DHT22;9572;52.378;13.404;2023-11-19T07:09:51;5.40;99.90
18880;DHT22;9572;52.378;13.404;2023-11-19T07:12:18;5.40;99.90
18880;DHT22;9572;52.378;13.404;2023-11-19T07:14:45;5.30;99.90
18880;DHT22;9572;52.378;13.404;2023-11-19T07:17:12;5.40;99.90
18880;DHT22;9572;52.378;13.404;2023-11-19T07:19:40;5.30;99.90
18880;DHT22;9572;52.378;13.404;2023-11-19T07:22:07;5.50;99.90
18880;DHT22;9572;52.378;13.404;2023-11-19T07:24:34;5.50;99.90
18880;DHT22;9572;52.378;13.404;2023-11-19T07:27:01;5.50;99.90
18880;DHT22;9572;52.378;13.404;2023-11-19T07:29:29;5.50;99.90
18880;DHT22;9572;52.378;13.404;2023-11-19T07:31:57;5.50;99.90
18880;DHT22;9572;52.378;13.404;2023-11-19T07:34:24;5.60;99.90
18880;DHT22;9572;52.378;13.404;2023-11-19T07:36:53;5.70;99.90
18880;DHT22;9572;52.378;13.404;2023-11-19T07:39:22;5.60;99.90
18880;DHT22;9572;52.378;13.404;2023-11-19T07:41:50;5.70;99.90
18880;DHT22;9572;52.378;13.404;2023-11-19T07:44:16;5.70;99.90
18880;DHT22;9572;52.378;13.404;2023-11-19T07:46:43;5.70;99.90
18880;DHT22;9572;52.378;13.404;2023-11-19T07:49:11;5.90;99.90
18880;DHT22;9572;52.378;13.404;2023-11-19T07:51:39;5.90;99.90
18880;DHT22;9572;52.378;13.404;2023-11-19T07:54:08;5.90;99.90
18880;DHT22;9572;52.378;13.404;2023-11-19T07:56:35;5.90;99.90
18880;DHT22;9572;52.378;13.404;2023-11-19T07:59:02;6.00;99.90
18880;DHT22;9572;52.378;13.404;2023-11-19T08:01:29;6.00;99.90
18880;DHT22;9572;52.378;13.404;2023-11-19T08:03:56;6.10;99.90
18880;DHT22;9572;52.378;13.404;2023-11-19T08:06:23;6.20;99.90
18880;DHT22;9572;52.378;13.404;2023-11-19T08:08:50;6.10;99.90
18880;DHT22;9572;52.378;13.404;2023-11-19T08:11:19;6.10;99.90
18880;DHT22;9572;52.378;13.404;2023-11-19T08:13:47;6.10;99.90
18880;DHT22;9572;52.378;13.404;2023-11-19T08:16:14;6.20;99.90
18880;DHT22;9572;52.378;13.404;2023-11-19T08:18:42;6.30;99.90
18880;DHT22;9572;52.378;13.404;2023-11-19T08:21:10;6.40;99.90
18880;DHT22;9572;52.378;13.404;2023-11-19T08:23:37;6.50;99.90
18880;DHT22;9572;52.378;13.404;2023-11-19T08:26:05;6.50;99.90
18880;DHT22;9572;52.378;13.404;2023-11-19T08:28:34;6.40;99.90
18880;DHT22;9572;52.378;13.404;2023-11-19T08:31:01;6.60;99.90
18880;DHT22;9572;52.378;13.404;2023-11-19T08:33:29;6.70;99.90
18880;DHT22;9572;52.378;13.404;2023-11-19T08:35:56;6.80;99.90
18880;DHT22;9572;52.378;13.404;2023-11-19T08:38:24;6.90;99.90
18880;DHT22;9572;52.378;13.404;2023-11-19T08:40:51;6.90;99.90
18880;DHT22;9572;52.378;13.404;2023-11-19T08:43:18;6.90;99.90
18880;DHT22;9572;52.378;13.404;2023-11-19T08:45:47;7.00;99.90
18880;DHT22;9572;52.378;13.404;2023-11-19T08:48:14;7.00;99.90
18880;DHT22;9572;52.378;13.404;2023-11-19T08:50:41;7.10;99.90
18880;DHT22;9572;52.378;13.404;2023-11-19T08:53:08;7.20;99.90
18880;DHT22;9572;52.378;13.404;2023-11-19T08:55:35;7.30;99.90
18880;DHT22;9572;52.378;13.404;2023-11-19T08:58:02;7.30;99.90
18880;DHT22;9572;52.378;13.404;2023-11-19T09:00:29;7.40;99.90
18880;DHT22;9572;52.378;13.404;2023-11-19T09:02:59;7.50;99.90
18880;DHT22;9572;52.378;13.404;2023-11-19T09:05:26;7.60;99.90
18880;DHT22;9572;52.378;13.404;2023-11-19T09:07:53;7.60;99.90
18880;DHT22;9572;52.378;13.404;2023-11-19T09:10:20;7.60;99.90
18880;DHT22;9572;52.378;13.404;2023-11-19T09:12:47;7.60;99.90
18880;DHT22;9572;52.378;13.404;2023-11-19T09:15:14;7.70;99.90
18880;DHT22;9572;52.378;13.404;2023-11-19T09:17:41;7.80;99.90
18880;DHT22;9572;52.378;13.404;2023-11-19T09:20:10;7.80;99.90
18880;DHT22;9572;52.378;13.404;2023-11-19T09:22:40;7.90;99.90
18880;DHT22;9572;52.378;13.404;2023-11-19T09:25:08;8.00;99.90
18880;DHT22;9572;52.378;13.404;2023-11-19T09:27:35;8.10;99.90
18880;DHT22;9572;52.378;13.404;2023-11-19T09:30:02;8.30;99.90
18880;DHT22;9572;52.378;13.404;2023-11-19T09:32:29;8.40;99.90
18880;DHT22;9572;52.378;13.404;2023-11-19T09:34:56;8.40;99.90
18880;DHT22;9572;52.378;13.404;2023-11-19T09:37:24;8.50;99.90
18880;DHT22;9572;52.378;13.404;2023-11-19T09:39:52;8.50;99.90
18880;DHT22;9572;52.378;13.404;2023-11-19T09:42:19;8.70;99.90
18880;DHT22;9572;52.378;13.404;2023-11-19T09:44:47;8.70;99.90
18880;DHT22;9572;52.378;13.404;2023-11-19T09:47:14;8.90;99.90
18880;DHT22;9572;52.378;13.404;2023-11-19T09:49:44;9.10;99.90
18880;DHT22;9572;52.378;13.404;2023-11-19T09:52:11;9.20;99.90
18880;DHT22;9572;52.378;13.404;2023-11-19T09:54:39;9.30;99.90
18880;DHT22;9572;52.378;13.404;2023-11-19T09:57:07;9.40;99.90
18880;DHT22;9572;52.378;13.404;2023-11-19T09:59:36;9.50;99.90
18880;DHT22;9572;52.378;13.404;2023-11-19T10:02:06;9.60;99.90
18880;DHT22;9572;52.378;13.404;2023-11-19T10:04:34;9.80;99.90
18880;DHT22;9572;52.378;13.404;2023-11-19T10:07:02;10.00;99.90
18880;DHT22;9572;52.378;13.404;2023-11-19T10:09:30;10.10;99.90
18880;DHT22;9572;52.378;13.404;2023-11-19T10:11:58;10.20;99.90
18880;DHT22;9572;52.378;13.404;2023-11-19T10:14:25;10.30;99.90
18880;DHT22;9572;52.378;13.404;2023-11-19T10:16:55;10.40;99.90
18880;DHT22;9572;52.378;13.404;2023-11-19T10:19:22;10.50;99.90
18880;DHT22;9572;52.378;13.404;2023-11-19T10:21:49;10.60;99.90
18880;DHT22;9572;52.378;13.404;2023-11-19T10:24:16;10.60;99.90
18880;DHT22;9572;52.378;13.404;2023-11-19T10:26:43;10.60;99.90
18880;DHT22;9572;52.378;13.404;2023-11-19T10:29:12;10.70;99.90
18880;DHT22;9572;52.378;13.404;2023-11-19T10:31:40;10.80;99.90
18880;DHT22;9572;52.378;13.404;2023-11-19T10:34:24;10.80;99.90
18880;DHT22;9572;52.378;13.404;2023-11-19T10:36:51;10.80;99.90
18880;DHT22;9572;52.378;13.404;2023-11-19T10:39:18;10.80;99.90
18880;DHT22;9572;52.378;13.404;2023-11-19T10:41:46;10.80;99.90
18880;DHT22;9572;52.378;13.404;2023-11-19T10:44:31;10.70;99.90
18880;DHT22;9572;52.378;13.404;2023-11-19T10:46:59;10.80;99.90
18880;DHT22;9572;52.378;13.404;2023-11-19T10:49:27;10.90;99.90
18880;DHT22;9572;52.378;13.404;2023-11-19T10:51:55;11.00;99.90
18880;DHT22;9572;52.378;13.404;2023-11-19T10:54:24;11.00;99.90
18880;DHT22;9572;52.378;13.404;2023-11-19T10:56:58;11.10;99.90
18880;DHT22;9572;52.378;13.404;2023-11-19T10:59:30;11.20;99.90
18880;DHT22;9572;52.378;13.404;2023-11-19T11:01:57;11.20;99.90
18880;DHT22;9572;52.378;13.404;2023-11-19T11:04:25;11.20;99.90
18880;DHT22;9572;52.378;13.404;2023-11-19T11:06:54;11.20;99.90
18880;DHT22;9572;52.378;13.404;2023-11-19T11:09:21;11.20;99.90
18880;DHT22;9572;52.378;13.404;2023-11-19T11:11:50;11.30;99.90
18880;DHT22;9572;52.378;13.404;2023-11-19T11:14:20;11.30;99.90
18880;DHT22;9572;52.378;13.404;2023-11-19T11:16:50;11.30;99.90
18880;DHT22;9572;52.378;13.404;2023-11-19T11:19:17;11.40;99.90
18880;DHT22;9572;52.378;13.404;2023-11-19T11:21:49;11.30;99.90
18880;DHT22;9572;52.378;13.404;2023-11-19T11:24:37;11.40;99.90
18880;DHT22;9572;52.378;13.404;2023-11-19T11:30:08;11.40;99.90
18880;DHT22;9572;52.378;13.404;2023-11-19T11:32:43;11.50;99.90
18880;DHT22;9572;52.378;13.404;2023-11-19T11:35:30;11.40;99.90
18880;DHT22;9572;52.378;13.404;2023-11-19T11:38:01;11.50;99.90
18880;DHT22;9572;52.378;13.404;2023-11-19T11:40:29;11.50;99.90
18880;DHT22;9572;52.378;13.404;2023-11-19T11:42:57;11.50;99.90
18880;DHT22;9572;52.378;13.404;2023-11-19T11:45:36;11.60;99.90
18880;DHT22;9572;52.378;13.404;2023-11-19T11:48:15;11.60;99.90
18880;DHT22;9572;52.378;13.404;2023-11-19T11:50:53;11.80;99.90
18880;DHT22;9572;52.378;13.404;2023-11-19T11:53:21;11.80;99.90
18880;DHT22;9572;52.378;13.404;2023-11-19T11:55:57;11.90;99.90
18880;DHT22;9572;52.378;13.404;2023-11-19T11:58:27;11.90;99.90
18880;DHT22;9572;52.378;13.404;2023-11-19T12:00:57;12.00;99.90
18880;DHT22;9572;52.378;13.404;2023-11-19T12:03:27;12.10;99.90
18880;DHT22;9572;52.378;13.404;2023-11-19T12:05:54;12.10;99.90
18880;DHT22;9572;52.378;13.404;2023-11-19T12:08:26;12.20;99.90
18880;DHT22;9572;52.378;13.404;2023-11-19T12:10:54;12.30;99.90
18880;DHT22;9572;52.378;13.404;2023-11-19T12:13:23;12.30;99.90
18880;DHT22;9572;52.378;13.404;2023-11-19T12:16:10;12.30;99.90
18880;DHT22;9572;52.378;13.404;2023-11-19T12:18:40;12.30;99.90
18880;DHT22;9572;52.378;13.404;2023-11-19T12:21:10;12.40;99.90
18880;DHT22;9572;52.378;13.404;2023-11-19T12:23:45;12.40;99.90
18880;DHT22;9572;52.378;13.404;2023-11-19T12:26:37;12.30;99.90
18880;DHT22;9572;52.378;13.404;2023-11-19T12:29:05;12.30;99.90
18880;DHT22;9572;52.378;13.404;2023-11-19T12:31:36;12.30;99.90
18880;DHT22;9572;52.378;13.404;2023-11-19T12:34:09;12.30;99.90
18880;DHT22;9572;52.378;13.404;2023-11-19T12:36:44;12.40;99.90
18880;DHT22;9572;52.378;13.404;2023-11-19T12:39:11;12.30;99.90
18880;DHT22;9572;52.378;13.404;2023-11-19T12:41:50;12.30;99.90
18880;DHT22;9572;52.378;13.404;2023-11-19T12:44:25;12.30;99.90
18880;DHT22;9572;52.378;13.404;2023-11-19T12:47:05;12.30;99.90
18880;DHT22;9572;52.378;13.404;2023-11-19T12:49:38;12.30;99.90
18880;DHT22;9572;52.378;13.404;2023-11-19T12:52:11;12.30;99.90
18880;DHT22;9572;52.378;13.404;2023-11-19T12:54:43;12.40;99.90
18880;DHT22;9572;52.378;13.404;2023-11-19T12:57:11;12.40;99.90
18880;DHT22;9572;52.378;13.404;2023-11-19T12:59:41;12.40;99.90
18880;DHT22;9572;52.378;13.404;2023-11-19T13:02:13;12.40;99.90
18880;DHT22;9572;52.378;13.404;2023-11-19T13:04:47;12.40;99.90
18880;DHT22;9572;52.378;13.404;2023-11-19T13:07:20;12.40;99.90
18880;DHT22;9572;52.378;13.404;2023-11-19T13:09:51;12.30;99.90
18880;DHT22;9572;52.378;13.404;2023-11-19T13:12:23;12.20;99.90
18880;DHT22;9572;52.378;13.404;2023-11-19T13:14:52;12.20;99.90
18880;DHT22;9572;52.378;13.404;2023-11-19T13:17:23;12.20;99.90
18880;DHT22;9572;52.378;13.404;2023-11-19T13:19:57;12.10;99.90
18880;DHT22;9572;52.378;13.404;2023-11-19T13:22:24;12.20;99.90
18880;DHT22;9572;52.378;13.404;2023-11-19T13:24:52;12.10;99.90
18880;DHT22;9572;52.378;13.404;2023-11-19T13:27:23;12.00;99.90
18880;DHT22;9572;52.378;13.404;2023-11-19T13:29:50;12.00;99.90
18880;DHT22;9572;52.378;13.404;2023-11-19T13:32:17;11.90;99.90
18880;DHT22;9572;52.378;13.404;2023-11-19T13:34:44;11.90;99.90
18880;DHT22;9572;52.378;13.404;2023-11-19T13:37:12;11.90;99.90
18880;DHT22;9572;52.378;13.404;2023-11-19T13:39:42;11.90;99.90
18880;DHT22;9572;52.378;13.404;2023-11-19T13:42:09;11.90;99.90
18880;DHT22;9572;52.378;13.404;2023-11-19T13:44:36;11.90;99.90
18880;DHT22;9572;52.378;13.404;2023-11-19T13:47:03;11.90;99.90
18880;DHT22;9572;52.378;13.404;2023-11-19T13:49:30;11.90;99.90
18880;DHT22;9572;52.378;13.404;2023-11-19T13:51:57;12.00;99.90
18880;DHT22;9572;52.378;13.404;2023-11-19T13:54:26;12.00;99.90
18880;DHT22;9572;52.378;13.404;2023-11-19T13:56:55;12.00;99.90
18880;DHT22;9572;52.378;13.404;2023-11-19T13:59:23;11.90;99.90
18880;DHT22;9572;52.378;13.404;2023-11-19T14:01:50;12.00;99.90
18880;DHT22;9572;52.378;13.404;2023-11-19T14:04:17;12.00;99.90
18880;DHT22;9572;52.378;13.404;2023-11-19T14:06:45;12.00;99.90
18880;DHT22;9572;52.378;13.404;2023-11-19T14:09:12;11.90;99.90
18880;DHT22;9572;52.378;13.404;2023-11-19T14:11:40;12.00;99.90
18880;DHT22;9572;52.378;13.404;2023-11-19T14:14:08;12.00;99.90
18880;DHT22;9572;52.378;13.404;2023-11-19T14:16:35;12.00;99.90
18880;DHT22;9572;52.378;13.404;2023-11-19T14:19:03;11.90;99.90
18880;DHT22;9572;52.378;13.404;2023-11-19T14:21:31;11.90;99.90
18880;DHT22;9572;52.378;13.404;2023-11-19T14:23:59;11.90;99.90
18880;DHT22;9572;52.378;13.404;2023-11-19T14:26:26;11.90;99.90
18880;DHT22;9572;52.378;13.404;2023-11-19T14:28:54;11.90;99.90
18880;DHT22;9572;52.378;13.404;2023-11-19T14:31:21;11.90;99.90
18880;DHT22;9572;52.378;13.404;2023-11-19T14:33:48;11.90;99.90
18880;DHT22;9572;52.378;13.404;2023-11-19T14:36:15;11.90;99.90
18880;DHT22;9572;52.378;13.404;2023-11-19T14:38:42;11.80;99.90
18880;DHT22;9572;52.378;13.404;2023-11-19T14:41:09;11.80;99.90
18880;DHT22;9572;52.378;13.404;2023-11-19T14:43:36;11.80;99.90
18880;DHT22;9572;52.378;13.404;2023-11-19T14:46:04;11.80;99.90
18880;DHT22;9572;52.378;13.404;2023-11-19T14:48:32;11.80;99.90
18880;DHT22;9572;52.378;13.404;2023-11-19T14:50:59;11.70;99.90
18880;DHT22;9572;52.378;13.404;2023-11-19T14:53:26;11.70;99.90
18880;DHT22;9572;52.378;13.404;2023-11-19T14:55:53;11.60;99.90
18880;DHT22;9572;52.378;13.404;2023-11-19T14:58:20;11.50;99.90
18880;DHT22;9572;52.378;13.404;2023-11-19T15:00:47;11.40;99.90
18880;DHT22;9572;52.378;13.404;2023-11-19T15:03:15;11.40;99.90
18880;DHT22;9572;52.378;13.404;2023-11-19T15:05:44;11.40;99.90
18880;DHT22;9572;52.378;13.404;2023-11-19T15:08:12;11.30;99.90
18880;DHT22;9572;52.378;13.404;2023-11-19T15:10:41;11.20;99.90
18880;DHT22;9572;52.378;13.404;2023-11-19T15:13:10;11.10;99.90
18880;DHT22;9572;52.378;13.404;2023-11-19T15:15:37;11.10;99.90
18880;DHT22;9572;52.378;13.404;2023-11-19T15:18:04;11.10;99.90
18880;DHT22;9572;52.378;13.404;2023-11-19T15:20:32;11.20;99.90
18880;DHT22;9572;52.378;13.404;2023-11-19T15:23:00;11.20;99.90
18880;DHT22;9572;52.378;13.404;2023-11-19T15:25:26;11.20;99.90
18880;DHT22;9572;52.378;13.404;2023-11-19T15:27:53;11.30;99.90
18880;DHT22;9572;52.378;13.404;2023-11-19T15:30:21;11.30;99.90
18880;DHT22;9572;52.378;13.404;2023-11-19T15:32:47;11.30;99.90
18880;DHT22;9572;52.378;13.404;2023-11-19T15:35:14;11.30;99.90
18880;DHT22;9572;52.378;13.404;2023-11-19T15:37:43;11.20;99.90
18880;DHT22;9572;52.378;13.404;2023-11-19T15:40:11;11.30;99.90
18880;DHT22;9572;52.378;13.404;2023-11-19T15:42:38;11.30;99.90
18880;DHT22;9572;52.378;13.404;2023-11-19T15:45:06;11.30;99.90
18880;DHT22;9572;52.378;13.404;2023-11-19T15:47:33;11.20;99.90
18880;DHT22;9572;52.378;13.404;2023-11-19T15:50:01;11.30;99.90